Allenville, Missouri
Current Conditions -  °F | °C
As of 1:53 PM on Friday 28 Nov 2014 (Local Time) from KCGI Reporting Station
Clear Clear  
Wind Chill: 39°   Ceiling: Unl
Heat Index: 46°   Visibility: 10mi
Dew Point: 33°   Wind: 18mph
Humidity: 61%   Direction: 190°S
Pressure: 30.14"   Gusts: 28mph
Location:  37.1651°N, 89.623°W
Report Text: KCGI 281953Z 19016G24KT 10SM CLR 08/01 A3014 RMK AO2 PK WND 21026/1933 SLP207 T00780006
Loading
Personal Weather Stations






























Interactive Weather Map New forecast layout! Learn more

10-Day Weather Forecast

Advertisements
Track Severe Weather on mobile